createdAt,value
2023-05-06T00:00:19.816Z,25.33
2023-05-06T00:01:19.816Z,25.38
2023-05-06T00:02:19.870Z,25.37
2023-05-06T00:03:19.989Z,25.45
2023-05-06T00:04:20.022Z,25.38
2023-05-06T00:05:19.941Z,25.38
2023-05-06T00:06:19.984Z,25.42
2023-05-06T00:07:20.039Z,25.41
2023-05-06T00:08:20.083Z,25.43
2023-05-06T00:09:20.077Z,25.41
2023-05-06T00:10:20.152Z,25.42
2023-05-06T00:11:20.178Z,25.41
2023-05-06T00:12:20.219Z,25.45
2023-05-06T00:13:20.265Z,25.45
2023-05-06T00:14:20.280Z,25.45
2023-05-06T00:15:20.287Z,25.49
2023-05-06T00:16:20.349Z,25.51
2023-05-06T00:17:20.325Z,25.49
2023-05-06T00:18:20.357Z,25.46
2023-05-06T00:19:20.420Z,25.39
2023-05-06T00:20:20.480Z,25.42
2023-05-06T00:21:20.471Z,25.48
2023-05-06T00:22:20.492Z,25.43
2023-05-06T00:23:20.548Z,25.49
2023-05-06T00:24:20.577Z,25.50
2023-05-06T00:25:20.582Z,25.49
2023-05-06T00:26:20.604Z,25.57
2023-05-06T00:27:20.661Z,25.49
2023-05-06T00:28:20.687Z,25.53
2023-05-06T00:29:20.684Z,25.50
2023-05-06T00:30:20.752Z,25.50
2023-05-06T00:31:20.923Z,25.55
2023-05-06T00:32:20.758Z,25.53
2023-05-06T00:33:20.818Z,25.60
2023-05-06T00:34:20.858Z,25.54
2023-05-06T00:35:20.934Z,25.56
2023-05-06T00:36:20.942Z,25.56
2023-05-06T00:37:20.968Z,25.55
2023-05-06T00:38:20.993Z,25.54
2023-05-06T00:39:21.004Z,25.55
2023-05-06T00:40:21.064Z,25.63
2023-05-06T00:41:21.082Z,25.60
2023-05-06T00:42:21.123Z,25.58
2023-05-06T00:43:21.193Z,25.61
2023-05-06T00:44:21.142Z,25.63
2023-05-06T00:45:21.221Z,25.60
2023-05-06T00:46:21.257Z,25.60
2023-05-06T00:47:21.334Z,25.67
2023-05-06T00:48:21.277Z,25.63
2023-05-06T00:49:21.384Z,25.64
2023-05-06T00:50:21.376Z,25.68
2023-05-06T00:51:21.456Z,25.68
2023-05-06T00:52:21.459Z,25.67
2023-05-06T00:53:21.462Z,25.69
2023-05-06T00:54:21.479Z,25.65
2023-05-06T00:55:21.529Z,25.67
2023-05-06T00:56:21.599Z,25.70
2023-05-06T00:57:21.605Z,25.71
2023-05-06T00:58:21.643Z,25.72
2023-05-06T00:59:21.644Z,25.72
2023-05-06T01:00:21.665Z,25.69
2023-05-06T01:01:21.715Z,25.66
2023-05-06T01:02:21.982Z,25.61
2023-05-06T01:03:21.934Z,25.65
2023-05-06T01:04:21.803Z,25.69
2023-05-06T01:05:21.866Z,25.75
2023-05-06T01:06:21.895Z,25.66
2023-05-06T01:07:21.922Z,25.63
2023-05-06T01:08:21.970Z,25.72
2023-05-06T01:09:21.999Z,25.72
2023-05-06T01:10:22.016Z,25.75
2023-05-06T01:11:22.087Z,25.78
2023-05-06T01:12:22.130Z,25.75
2023-05-06T01:13:22.095Z,25.70
2023-05-06T01:14:22.169Z,25.73
2023-05-06T01:15:22.173Z,25.78
2023-05-06T01:16:22.250Z,25.72
2023-05-06T01:17:22.314Z,25.75
2023-05-06T01:18:22.306Z,25.73
2023-05-06T01:19:22.371Z,25.79
2023-05-06T01:20:22.371Z,25.76
2023-05-06T01:21:22.385Z,25.80
2023-05-06T01:22:22.415Z,25.80
2023-05-06T01:23:22.420Z,25.79
2023-05-06T01:24:22.452Z,25.76
2023-05-06T01:25:22.513Z,25.88
2023-05-06T01:26:22.580Z,25.77
2023-05-06T01:27:22.575Z,25.79
2023-05-06T01:28:22.644Z,25.80
2023-05-06T01:29:22.655Z,25.84
2023-05-06T01:30:22.670Z,25.88
2023-05-06T01:31:22.776Z,25.88
2023-05-06T01:32:22.817Z,25.90
2023-05-06T01:33:22.789Z,25.88
2023-05-06T01:34:22.816Z,25.83
2023-05-06T01:35:23.351Z,25.82
2023-05-06T01:36:22.877Z,25.90
2023-05-06T01:37:22.927Z,25.94
2023-05-06T01:38:22.953Z,25.87
2023-05-06T01:39:23.006Z,25.85
2023-05-06T01:40:23.056Z,25.90
2023-05-06T01:41:23.126Z,25.90
2023-05-06T01:42:23.131Z,25.87
2023-05-06T01:43:23.165Z,25.92
2023-05-06T01:44:23.290Z,25.99
2023-05-06T01:45:23.246Z,25.98
2023-05-06T01:46:23.308Z,25.91
2023-05-06T01:47:23.374Z,25.94
2023-05-06T01:48:23.372Z,25.98
2023-05-06T01:49:23.419Z,26.00
2023-05-06T01:50:23.528Z,26.00
2023-05-06T01:51:23.565Z,25.99
2023-05-06T01:52:23.551Z,26.00
2023-05-06T01:53:23.612Z,25.96
2023-05-06T01:54:23.633Z,26.02
2023-05-06T01:55:23.672Z,26.03
2023-05-06T01:56:23.725Z,26.06
2023-05-06T01:57:23.763Z,26.03
2023-05-06T01:58:23.778Z,26.00
2023-05-06T01:59:23.857Z,26.07
2023-05-06T02:00:23.910Z,26.11
2023-05-06T02:01:24.015Z,26.06
2023-05-06T02:02:24.005Z,26.03
2023-05-06T02:03:24.219Z,26.09
2023-05-06T02:04:24.043Z,26.10
2023-05-06T02:05:24.151Z,26.02
2023-05-06T02:06:24.160Z,26.03
2023-05-06T02:07:24.261Z,26.13
2023-05-06T02:08:24.219Z,26.17
2023-05-06T02:09:24.339Z,26.15
2023-05-06T02:10:24.357Z,26.13
2023-05-06T02:11:24.409Z,26.11
2023-05-06T02:12:24.461Z,26.17
2023-05-06T02:13:24.474Z,26.15
2023-05-06T02:14:24.530Z,26.20
2023-05-06T02:15:24.532Z,26.20
2023-05-06T02:16:24.629Z,26.21
2023-05-06T02:17:24.628Z,26.22
2023-05-06T02:18:24.703Z,26.21
2023-05-06T02:19:24.747Z,26.21
2023-05-06T02:20:24.810Z,26.19
2023-05-06T02:21:24.832Z,26.23
2023-05-06T02:22:24.876Z,26.18
2023-05-06T02:23:24.995Z,26.21
2023-05-06T02:24:24.982Z,26.18
2023-05-06T02:25:25.004Z,26.21
2023-05-06T02:26:25.059Z,26.21
2023-05-06T02:27:25.106Z,26.21
2023-05-06T02:28:25.141Z,26.28
2023-05-06T02:29:25.266Z,26.25
2023-05-06T02:30:25.299Z,26.28
2023-05-06T02:31:25.356Z,26.22
2023-05-06T02:32:25.368Z,26.22
2023-05-06T02:33:25.403Z,26.24
2023-05-06T02:34:25.510Z,26.36
2023-05-06T02:35:25.535Z,26.29
2023-05-06T02:36:25.561Z,26.30
2023-05-06T02:37:25.652Z,26.33
2023-05-06T02:38:25.659Z,26.35
2023-05-06T02:39:25.700Z,26.30
2023-05-06T02:40:25.761Z,26.30
2023-05-06T02:41:25.823Z,26.32
2023-05-06T02:42:25.917Z,26.35
2023-05-06T02:43:25.934Z,26.30
2023-05-06T02:44:26.001Z,26.29
2023-05-06T02:45:26.008Z,26.33
2023-05-06T02:46:26.100Z,26.36
2023-05-06T02:47:26.142Z,26.29
2023-05-06T02:48:26.172Z,26.32
2023-05-06T02:49:26.235Z,26.37
2023-05-06T02:50:26.266Z,26.35
2023-05-06T02:51:26.348Z,26.37
2023-05-06T02:52:26.362Z,26.34
2023-05-06T02:53:26.409Z,26.39
2023-05-06T02:54:26.478Z,26.38
2023-05-06T02:55:26.615Z,26.37
2023-05-06T02:56:26.588Z,26.40
2023-05-06T02:57:26.610Z,26.35
2023-05-06T02:58:26.642Z,26.37
2023-05-06T02:59:26.746Z,26.35
2023-05-06T03:00:26.783Z,26.42
2023-05-06T03:01:26.911Z,26.37
2023-05-06T03:02:26.891Z,26.38
2023-05-06T03:03:26.946Z,26.42
2023-05-06T03:04:27.006Z,26.44
2023-05-06T03:05:26.997Z,26.40
2023-05-06T03:06:27.070Z,26.41
2023-05-06T03:07:27.122Z,26.37
2023-05-06T03:08:27.196Z,26.42
2023-05-06T03:09:27.192Z,26.42
2023-05-06T03:10:27.248Z,26.44
2023-05-06T03:11:27.353Z,26.38
2023-05-06T03:12:27.347Z,26.42
2023-05-06T03:13:27.416Z,26.39
2023-05-06T03:14:27.478Z,26.48
2023-05-06T03:15:27.541Z,26.39
2023-05-06T03:16:27.630Z,26.49
2023-05-06T03:17:27.689Z,26.46
2023-05-06T03:18:27.712Z,26.48
2023-05-06T03:19:27.714Z,26.48
2023-05-06T03:20:27.774Z,26.47
2023-05-06T03:21:27.883Z,26.50
2023-05-06T03:22:27.912Z,26.51
2023-05-06T03:23:28.019Z,26.49
2023-05-06T03:24:28.011Z,26.52
2023-05-06T03:25:28.089Z,26.50
2023-05-06T03:26:28.137Z,26.55
2023-05-06T03:27:28.285Z,26.48
2023-05-06T03:28:28.244Z,26.51
2023-05-06T03:29:28.284Z,26.51
2023-05-06T03:30:28.344Z,26.51
2023-05-06T03:31:28.470Z,26.55
2023-05-06T03:32:28.579Z,26.57
2023-05-06T03:33:28.531Z,26.53
2023-05-06T03:34:28.597Z,26.60
2023-05-06T03:35:28.649Z,26.53
2023-05-06T03:36:28.712Z,26.59
2023-05-06T03:37:28.748Z,26.55
2023-05-06T03:38:28.807Z,26.52
2023-05-06T03:39:28.876Z,26.59
2023-05-06T03:40:28.934Z,26.62
2023-05-06T03:41:28.995Z,26.53
2023-05-06T03:42:29.079Z,26.59
2023-05-06T03:43:29.330Z,26.56
2023-05-06T03:44:29.178Z,26.57
2023-05-06T03:45:29.230Z,26.57
2023-05-06T03:46:29.382Z,26.60
2023-05-06T03:47:29.412Z,26.60
2023-05-06T03:48:29.445Z,26.56
2023-05-06T03:49:29.516Z,26.58
2023-05-06T03:50:29.651Z,26.57
2023-05-06T03:51:29.583Z,26.62
2023-05-06T03:52:29.663Z,26.64
2023-05-06T03:53:29.742Z,26.56
2023-05-06T03:54:29.846Z,26.61
2023-05-06T03:55:29.890Z,26.63
2023-05-06T03:56:29.922Z,26.67
2023-05-06T03:57:30.132Z,26.67
2023-05-06T03:58:30.082Z,26.66
2023-05-06T03:59:30.181Z,26.73
2023-05-06T04:00:30.192Z,26.66
2023-05-06T04:01:30.225Z,26.68
2023-05-06T04:02:30.373Z,26.61
2023-05-06T04:03:30.435Z,26.63
2023-05-06T04:04:30.434Z,26.65
2023-05-06T04:05:30.470Z,26.72
2023-05-06T04:06:30.543Z,26.71
2023-05-06T04:07:30.644Z,26.72
2023-05-06T04:08:30.679Z,26.68
2023-05-06T04:09:30.764Z,26.70
2023-05-06T04:10:30.814Z,26.75
2023-05-06T04:11:30.869Z,26.68
2023-05-06T04:12:30.991Z,26.77
2023-05-06T04:13:31.004Z,26.71
2023-05-06T04:14:31.021Z,26.71
2023-05-06T04:15:31.163Z,26.67
2023-05-06T04:16:31.253Z,26.71
2023-05-06T04:17:31.289Z,26.81
2023-05-06T04:18:31.304Z,26.77
2023-05-06T04:19:31.357Z,26.74
2023-05-06T04:20:31.425Z,26.72
2023-05-06T04:21:31.484Z,26.75
2023-05-06T04:22:31.519Z,26.66
2023-05-06T04:23:31.619Z,26.72
2023-05-06T04:24:31.680Z,26.72
2023-05-06T04:25:31.763Z,26.71
2023-05-06T04:26:31.794Z,26.72
2023-05-06T04:27:31.856Z,26.74
2023-05-06T04:28:31.983Z,26.72
2023-05-06T04:29:31.984Z,26.74
2023-05-06T04:30:32.041Z,26.75
2023-05-06T04:31:32.103Z,26.72
2023-05-06T04:32:32.220Z,26.71
2023-05-06T04:33:32.267Z,26.74
2023-05-06T04:34:32.264Z,26.73
2023-05-06T04:35:32.381Z,26.76
2023-05-06T04:36:32.439Z,26.78
2023-05-06T04:37:32.477Z,26.76
2023-05-06T04:38:32.536Z,26.74
2023-05-06T04:39:32.596Z,26.71
2023-05-06T04:40:32.657Z,26.81
2023-05-06T04:41:32.682Z,26.75
2023-05-06T04:42:32.768Z,26.72
2023-05-06T04:43:32.853Z,26.78
2023-05-06T04:44:32.873Z,26.82
2023-05-06T04:45:33.018Z,26.78
2023-05-06T04:46:32.998Z,26.82
2023-05-06T04:47:33.124Z,26.83
2023-05-06T04:48:33.123Z,26.82
2023-05-06T04:49:33.192Z,26.82
2023-05-06T04:50:33.246Z,26.79
2023-05-06T04:51:33.300Z,26.76
2023-05-06T04:52:33.343Z,26.79
2023-05-06T04:53:33.436Z,26.75
2023-05-06T04:54:33.469Z,26.80
2023-05-06T04:55:33.500Z,26.81
2023-05-06T04:56:33.575Z,26.77
2023-05-06T04:57:33.657Z,26.75
2023-05-06T04:58:33.694Z,26.78
2023-05-06T04:59:33.810Z,26.84
2023-05-06T05:00:33.873Z,26.80
2023-05-06T05:01:33.951Z,26.86
2023-05-06T05:02:33.978Z,26.88
2023-05-06T05:03:34.222Z,26.73
2023-05-06T05:04:34.098Z,26.80
2023-05-06T05:05:34.156Z,26.76
2023-05-06T05:06:34.248Z,26.82
2023-05-06T05:07:34.223Z,26.83
2023-05-06T05:08:34.333Z,26.83
2023-05-06T05:09:34.377Z,26.80
2023-05-06T05:10:34.451Z,26.84
2023-05-06T05:11:34.509Z,26.84
2023-05-06T05:12:34.634Z,26.80
2023-05-06T05:13:34.585Z,26.83
2023-05-06T05:14:34.650Z,26.83
2023-05-06T05:15:34.698Z,26.79
2023-05-06T05:16:34.775Z,26.87
2023-05-06T05:17:34.905Z,26.83
2023-05-06T05:18:34.870Z,26.82
2023-05-06T05:19:35.027Z,26.84
2023-05-06T05:20:35.041Z,26.85
2023-05-06T05:21:35.072Z,26.86
2023-05-06T05:22:35.110Z,26.88
2023-05-06T05:23:35.184Z,26.85
2023-05-06T05:24:35.265Z,26.83
2023-05-06T05:25:35.326Z,26.86
2023-05-06T05:26:35.388Z,26.83
2023-05-06T05:27:35.488Z,26.83
2023-05-06T05:28:35.494Z,26.85
2023-05-06T05:29:35.563Z,26.79
2023-05-06T05:30:35.620Z,26.85
2023-05-06T05:31:35.686Z,26.85
2023-05-06T05:32:35.799Z,26.85
2023-05-06T05:33:35.883Z,26.82
2023-05-06T05:34:35.861Z,26.85
2023-05-06T05:35:35.987Z,26.86
2023-05-06T05:36:35.984Z,26.84
2023-05-06T05:37:36.026Z,26.82
2023-05-06T05:38:36.085Z,26.74
2023-05-06T05:39:36.230Z,26.78
2023-05-06T05:40:36.180Z,26.79
2023-05-06T05:41:36.309Z,26.81
2023-05-06T05:42:36.309Z,26.74
2023-05-06T05:43:36.422Z,26.70
2023-05-06T05:44:36.481Z,26.75
2023-05-06T05:45:36.490Z,26.73
2023-05-06T05:46:36.666Z,26.72
2023-05-06T05:47:36.683Z,26.73
2023-05-06T05:48:36.695Z,26.77
2023-05-06T05:49:36.769Z,26.75
2023-05-06T05:50:36.822Z,26.84
2023-05-06T05:51:36.874Z,26.78
2023-05-06T05:52:36.997Z,26.78
2023-05-06T05:53:37.022Z,26.77
2023-05-06T05:54:37.050Z,26.77
2023-05-06T05:55:37.114Z,26.77
2023-05-06T05:56:37.165Z,26.70
2023-05-06T05:57:37.230Z,26.81
2023-05-06T05:58:37.338Z,26.71
2023-05-06T05:59:37.367Z,26.77
2023-05-06T06:00:37.417Z,26.71
2023-05-06T06:01:37.493Z,26.70
2023-05-06T06:02:37.724Z,26.74
2023-05-06T06:03:37.711Z,26.72
2023-05-06T06:04:37.827Z,26.72
2023-05-06T06:05:37.720Z,26.65
2023-05-06T06:06:37.804Z,26.65
2023-05-06T06:07:37.930Z,26.67
2023-05-06T06:08:37.910Z,26.68
2023-05-06T06:09:37.971Z,26.69
2023-05-06T06:10:38.033Z,26.61
2023-05-06T06:11:38.087Z,26.62
2023-05-06T06:12:38.242Z,26.65
2023-05-06T06:13:38.203Z,26.58
2023-05-06T06:14:38.260Z,26.57
2023-05-06T06:15:38.306Z,26.61
2023-05-06T06:16:38.651Z,26.59
2023-05-06T06:17:38.558Z,26.58
2023-05-06T06:18:38.538Z,26.69
2023-05-06T06:19:38.553Z,26.65
2023-05-06T06:20:38.627Z,26.76
2023-05-06T06:21:38.667Z,26.72
2023-05-06T06:22:38.726Z,26.73
2023-05-06T06:23:38.846Z,26.70
2023-05-06T06:24:38.844Z,26.70
2023-05-06T06:25:38.886Z,26.68
2023-05-06T06:26:38.963Z,26.76
2023-05-06T06:27:39.041Z,26.80
2023-05-06T06:28:39.084Z,26.86
2023-05-06T06:29:39.118Z,26.82
2023-05-06T06:30:39.289Z,26.68
2023-05-06T06:31:40.650Z,26.71
2023-05-06T06:32:39.327Z,26.75
2023-05-06T06:33:39.371Z,26.72
2023-05-06T06:34:39.400Z,26.75
2023-05-06T06:35:39.431Z,26.80
2023-05-06T06:36:39.478Z,26.69
2023-05-06T06:37:39.552Z,26.89
2023-05-06T06:38:39.604Z,26.96
2023-05-06T06:39:39.698Z,26.93
2023-05-06T06:40:39.679Z,26.97
2023-05-06T06:41:39.695Z,26.95
2023-05-06T06:42:39.734Z,26.93
2023-05-06T06:43:39.800Z,26.92
2023-05-06T06:44:39.822Z,26.98
2023-05-06T06:45:39.920Z,26.90
2023-05-06T06:46:39.933Z,26.93
2023-05-06T06:47:40.018Z,26.92
2023-05-06T06:48:40.017Z,26.95
2023-05-06T06:49:40.081Z,26.98
2023-05-06T06:50:40.083Z,26.91
2023-05-06T06:51:40.159Z,26.91
2023-05-06T06:52:40.203Z,26.94
2023-05-06T06:53:40.237Z,26.91
2023-05-06T06:54:40.282Z,26.95
2023-05-06T06:55:40.316Z,26.94
2023-05-06T06:56:40.351Z,26.91
2023-05-06T06:57:40.393Z,26.92
2023-05-06T06:58:40.484Z,26.92
2023-05-06T06:59:40.458Z,26.94
2023-05-06T07:00:40.572Z,26.93
2023-05-06T07:01:40.703Z,26.93
2023-05-06T07:02:40.629Z,26.89
2023-05-06T07:03:40.615Z,26.87
2023-05-06T07:04:40.794Z,26.89
2023-05-06T07:05:40.707Z,26.87
2023-05-06T07:06:40.762Z,26.83
2023-05-06T07:07:40.752Z,26.82
2023-05-06T07:08:40.782Z,26.82
2023-05-06T07:09:40.800Z,26.77
2023-05-06T07:10:40.882Z,26.81
2023-05-06T07:11:40.959Z,26.80
2023-05-06T07:12:40.986Z,26.80
2023-05-06T07:13:40.958Z,26.73
2023-05-06T07:14:40.994Z,26.67
2023-05-06T07:15:41.084Z,26.73
2023-05-06T07:16:41.354Z,26.63
2023-05-06T07:17:41.167Z,26.72
2023-05-06T07:18:41.163Z,26.70
2023-05-06T07:19:41.241Z,26.72
2023-05-06T07:20:41.196Z,26.65
2023-05-06T07:21:41.223Z,26.66
2023-05-06T07:22:41.373Z,26.64
2023-05-06T07:23:41.294Z,26.63
2023-05-06T07:24:41.299Z,26.61
2023-05-06T07:25:41.360Z,26.55
2023-05-06T07:26:41.347Z,26.45
2023-05-06T07:27:41.556Z,26.46
2023-05-06T07:28:42.329Z,26.49
2023-05-06T07:29:41.415Z,26.52
2023-05-06T07:30:41.454Z,26.56
2023-05-06T07:31:41.453Z,26.54
2023-05-06T07:32:41.551Z,26.52
2023-05-06T07:33:41.514Z,26.56
2023-05-06T07:34:41.500Z,26.51
2023-05-06T07:35:41.507Z,26.50
2023-05-06T07:36:41.504Z,26.38
2023-05-06T07:37:41.535Z,26.37
2023-05-06T07:38:41.530Z,26.25
2023-05-06T07:39:41.495Z,26.23
2023-05-06T07:40:42.357Z,26.20
2023-05-06T07:41:41.511Z,26.22
2023-05-06T07:42:42.790Z,26.05
2023-05-06T07:43:41.679Z,25.94
2023-05-06T07:44:41.647Z,25.85
2023-05-06T07:45:41.743Z,25.66
2023-05-06T07:46:41.852Z,25.69
2023-05-06T07:47:41.871Z,25.69
2023-05-06T07:48:41.879Z,25.75
2023-05-06T07:49:41.878Z,25.79
2023-05-06T07:50:41.980Z,25.75
2023-05-06T07:51:41.986Z,25.76
2023-05-06T07:52:42.029Z,25.75
2023-05-06T07:53:42.070Z,25.76
2023-05-06T07:54:42.105Z,25.82
2023-05-06T07:55:42.152Z,25.82
2023-05-06T07:56:42.196Z,25.83
2023-05-06T07:57:42.231Z,25.83
2023-05-06T07:58:42.236Z,25.80
2023-05-06T07:59:42.407Z,25.65
2023-05-06T08:00:42.281Z,25.65
2023-05-06T08:01:42.361Z,25.70
2023-05-06T08:02:42.419Z,25.69
2023-05-06T08:03:42.523Z,25.74
2023-05-06T08:04:42.628Z,25.75
2023-05-06T08:05:42.409Z,25.82
2023-05-06T08:06:42.524Z,25.78
2023-05-06T08:07:42.522Z,25.88
2023-05-06T08:08:42.536Z,25.85
2023-05-06T08:09:42.632Z,25.86
2023-05-06T08:10:42.583Z,25.86
2023-05-06T08:11:42.633Z,25.80
2023-05-06T08:12:42.725Z,25.90
2023-05-06T08:13:42.702Z,25.89
2023-05-06T08:14:42.737Z,25.84
2023-05-06T08:15:42.812Z,25.76
2023-05-06T08:16:42.815Z,25.66
2023-05-06T08:17:42.789Z,25.60
2023-05-06T08:18:42.792Z,25.60
2023-05-06T08:19:42.802Z,25.51
2023-05-06T08:20:42.803Z,25.49
2023-05-06T08:21:42.802Z,25.50
2023-05-06T08:22:42.864Z,25.49
2023-05-06T08:23:42.767Z,25.45
2023-05-06T08:24:42.826Z,25.52
2023-05-06T08:25:42.839Z,25.45
2023-05-06T08:26:42.836Z,25.50
2023-05-06T08:27:42.881Z,25.56
2023-05-06T08:28:42.889Z,25.52
2023-05-06T08:29:42.940Z,25.49
2023-05-06T08:30:42.972Z,25.46
2023-05-06T08:31:43.066Z,25.42
2023-05-06T08:32:43.145Z,25.46
2023-05-06T08:33:43.152Z,25.36
2023-05-06T08:34:43.192Z,25.33
2023-05-06T08:35:43.307Z,25.39
2023-05-06T08:36:43.415Z,25.38
2023-05-06T08:37:43.383Z,25.42
2023-05-06T08:38:43.433Z,25.40
2023-05-06T08:39:43.505Z,25.46
2023-05-06T08:40:43.573Z,25.47
2023-05-06T08:41:43.707Z,25.49
2023-05-06T08:42:43.659Z,25.54
2023-05-06T08:43:43.706Z,25.58
2023-05-06T08:44:43.806Z,25.65
2023-05-06T08:45:43.862Z,25.62
2023-05-06T08:46:43.901Z,25.60
2023-05-06T08:47:44.034Z,25.63
2023-05-06T08:48:43.971Z,25.80
2023-05-06T08:49:44.022Z,25.70
2023-05-06T08:50:44.065Z,25.82
2023-05-06T08:51:44.133Z,25.74
2023-05-06T08:52:44.180Z,25.77
2023-05-06T08:53:44.258Z,25.82
2023-05-06T08:54:44.280Z,25.81
2023-05-06T08:55:44.332Z,25.80
2023-05-06T08:56:44.410Z,25.77
2023-05-06T08:57:44.478Z,25.77
2023-05-06T08:58:44.541Z,25.77
2023-05-06T08:59:44.597Z,25.65
2023-05-06T09:00:44.650Z,25.73
2023-05-06T09:01:44.774Z,25.72
2023-05-06T09:02:44.878Z,25.79
2023-05-06T09:03:44.888Z,25.81
2023-05-06T09:04:44.938Z,25.81
2023-05-06T09:05:44.956Z,25.84
2023-05-06T09:06:45.045Z,25.84
2023-05-06T09:07:45.129Z,25.87
2023-05-06T09:08:45.179Z,25.84
2023-05-06T09:09:45.222Z,25.88
2023-05-06T09:10:45.295Z,25.85
2023-05-06T09:11:45.331Z,25.87
2023-05-06T09:12:45.441Z,25.91
2023-05-06T09:13:45.450Z,25.94
2023-05-06T09:14:45.528Z,25.93
2023-05-06T09:15:45.621Z,25.99
2023-05-06T09:16:45.705Z,26.01
2023-05-06T09:17:45.694Z,26.03
2023-05-06T09:18:45.686Z,26.05
2023-05-06T09:19:45.794Z,26.06
2023-05-06T09:20:45.797Z,26.06
2023-05-06T09:21:45.824Z,26.10
2023-05-06T09:22:45.878Z,26.07
2023-05-06T09:23:45.942Z,26.11
2023-05-06T09:24:45.950Z,26.16
2023-05-06T09:25:46.001Z,26.21
2023-05-06T09:26:46.074Z,26.18
2023-05-06T09:27:46.072Z,26.22
2023-05-06T09:28:46.028Z,26.22
2023-05-06T09:29:46.027Z,26.25
2023-05-06T09:30:46.102Z,26.34
2023-05-06T09:31:46.120Z,26.33
2023-05-06T09:32:46.113Z,26.36
2023-05-06T09:33:46.098Z,26.28
2023-05-06T09:34:46.120Z,26.33
2023-05-06T09:35:46.116Z,26.37
2023-05-06T09:36:46.141Z,26.40
2023-05-06T09:37:46.147Z,26.45
2023-05-06T09:38:46.138Z,26.44
2023-05-06T09:39:46.105Z,26.42
2023-05-06T09:40:46.105Z,26.42
2023-05-06T09:41:46.110Z,26.46
2023-05-06T09:42:46.122Z,26.49
2023-05-06T09:43:46.078Z,26.52
2023-05-06T09:44:46.084Z,26.51
2023-05-06T09:45:46.111Z,26.46
2023-05-06T09:46:46.182Z,26.55
2023-05-06T09:47:46.128Z,26.52
2023-05-06T09:48:46.184Z,26.50
2023-05-06T09:49:46.140Z,26.60
2023-05-06T09:50:46.168Z,26.60
2023-05-06T09:51:46.133Z,26.59
2023-05-06T09:52:46.193Z,26.59
2023-05-06T09:53:46.153Z,26.61
2023-05-06T09:54:46.198Z,26.60
2023-05-06T09:55:46.243Z,26.56
2023-05-06T09:56:46.169Z,26.60
2023-05-06T09:57:46.181Z,26.60
2023-05-06T09:58:46.299Z,26.64
2023-05-06T09:59:46.234Z,26.62
2023-05-06T10:00:46.252Z,26.61
2023-05-06T10:01:46.259Z,26.62
2023-05-06T10:02:46.341Z,26.62
2023-05-06T10:03:46.429Z,26.61
2023-05-06T10:04:46.529Z,26.63
2023-05-06T10:05:46.275Z,26.56
2023-05-06T10:06:46.258Z,26.56
2023-05-06T10:07:46.211Z,26.59
2023-05-06T10:08:46.256Z,26.57
2023-05-06T10:09:46.260Z,26.58
2023-05-06T10:10:46.250Z,26.53
2023-05-06T10:11:46.248Z,26.53
2023-05-06T10:12:46.318Z,26.46
2023-05-06T10:13:46.249Z,26.47
2023-05-06T10:14:46.281Z,26.46
2023-05-06T10:15:46.366Z,26.41
2023-05-06T10:16:46.356Z,26.40
2023-05-06T10:17:46.444Z,26.31
2023-05-06T10:18:46.479Z,26.35
2023-05-06T10:19:46.517Z,26.39
2023-05-06T10:20:46.590Z,26.33
2023-05-06T10:21:46.628Z,26.32
2023-05-06T10:22:46.735Z,26.29
2023-05-06T10:23:46.876Z,26.36
2023-05-06T10:24:46.843Z,26.30
2023-05-06T10:25:46.946Z,26.31
2023-05-06T10:26:46.936Z,26.27
2023-05-06T10:27:47.043Z,26.32
2023-05-06T10:28:47.074Z,26.28
2023-05-06T10:29:47.154Z,26.21
2023-05-06T10:30:47.178Z,26.23
2023-05-06T10:31:47.247Z,26.25
2023-05-06T10:32:47.467Z,26.25
2023-05-06T10:33:47.389Z,26.23
2023-05-06T10:34:47.401Z,26.22
2023-05-06T10:35:47.465Z,26.20
2023-05-06T10:36:47.503Z,26.22
2023-05-06T10:37:47.514Z,26.19
2023-05-06T10:38:47.550Z,26.18
2023-05-06T10:39:47.661Z,26.12
2023-05-06T10:40:47.674Z,26.15
2023-05-06T10:41:47.733Z,26.16
2023-05-06T10:42:47.752Z,26.22
2023-05-06T10:43:47.807Z,26.15
2023-05-06T10:44:47.855Z,26.16
2023-05-06T10:45:47.913Z,26.25
2023-05-06T10:46:47.928Z,26.25
2023-05-06T10:47:47.993Z,26.23
2023-05-06T10:48:48.032Z,26.29
2023-05-06T10:49:48.029Z,26.28
2023-05-06T10:50:48.212Z,26.26
2023-05-06T10:51:48.152Z,26.26
2023-05-06T10:52:48.221Z,26.28
2023-05-06T10:53:48.282Z,26.26
2023-05-06T10:54:48.332Z,26.28
2023-05-06T10:55:49.055Z,26.25
2023-05-06T10:56:48.395Z,26.28
2023-05-06T10:57:48.460Z,26.28
2023-05-06T10:58:48.478Z,26.25
2023-05-06T10:59:48.601Z,26.26
2023-05-06T11:00:48.610Z,26.26
2023-05-06T11:01:48.623Z,26.24
2023-05-06T11:02:48.725Z,26.27
2023-05-06T11:03:48.748Z,26.20
2023-05-06T11:04:48.760Z,26.19
2023-05-06T11:05:48.780Z,26.19
2023-05-06T11:06:48.765Z,26.20
2023-05-06T11:07:48.828Z,26.17
2023-05-06T11:08:48.844Z,26.17
2023-05-06T11:09:48.958Z,26.16
2023-05-06T11:10:49.000Z,26.12
2023-05-06T11:11:48.983Z,26.15
2023-05-06T11:12:49.234Z,26.08
2023-05-06T11:13:50.556Z,26.08
2023-05-06T11:14:49.033Z,26.08
2023-05-06T11:15:49.039Z,26.07
2023-05-06T11:16:49.078Z,26.07
2023-05-06T11:17:49.048Z,26.08
2023-05-06T11:18:49.067Z,26.04
2023-05-06T11:19:49.116Z,26.04
2023-05-06T11:20:49.123Z,26.07
2023-05-06T11:21:50.635Z,25.97
2023-05-06T11:22:49.191Z,26.04
2023-05-06T11:23:49.209Z,26.08
2023-05-06T11:24:49.201Z,26.06
2023-05-06T11:25:49.266Z,26.07
2023-05-06T11:26:49.284Z,26.06
2023-05-06T11:27:50.848Z,26.08
2023-05-06T11:28:49.325Z,26.07
2023-05-06T11:29:49.352Z,26.10
2023-05-06T11:30:49.391Z,26.08
2023-05-06T11:31:49.362Z,26.11
2023-05-06T11:32:49.480Z,26.13
2023-05-06T11:33:49.429Z,26.11
2023-05-06T11:34:49.448Z,26.12
2023-05-06T11:35:49.489Z,26.14
2023-05-06T11:36:49.491Z,26.15
2023-05-06T11:37:49.554Z,26.14
2023-05-06T11:38:49.586Z,26.12
2023-05-06T11:39:49.602Z,26.13
2023-05-06T11:40:49.573Z,26.14
2023-05-06T11:41:49.583Z,26.10
2023-05-06T11:42:49.592Z,26.10
2023-05-06T11:43:49.718Z,26.10
2023-05-06T11:44:49.640Z,26.10
2023-05-06T11:45:49.640Z,26.09
2023-05-06T11:46:50.119Z,26.09
2023-05-06T11:47:49.772Z,26.08
2023-05-06T11:48:49.723Z,26.02
2023-05-06T11:49:49.728Z,26.00
2023-05-06T11:50:49.781Z,26.00
2023-05-06T11:51:49.788Z,25.93
2023-05-06T11:52:49.869Z,25.97
2023-05-06T11:53:49.825Z,25.90
2023-05-06T11:54:50.266Z,25.90
2023-05-06T11:55:49.904Z,25.92
2023-05-06T11:56:49.886Z,25.95
2023-05-06T11:57:49.893Z,25.92
2023-05-06T11:58:49.906Z,25.94
2023-05-06T11:59:50.031Z,25.85
2023-05-06T12:00:51.397Z,25.82
2023-05-06T12:01:49.952Z,25.87
2023-05-06T12:02:50.051Z,25.80
2023-05-06T12:03:50.152Z,25.77
2023-05-06T12:04:50.099Z,25.80
2023-05-06T12:05:50.001Z,25.80
2023-05-06T12:06:49.953Z,25.80
2023-05-06T12:07:49.954Z,25.77
2023-05-06T12:08:49.960Z,25.73
2023-05-06T12:09:49.973Z,25.70
2023-05-06T12:10:49.985Z,25.69
2023-05-06T12:11:49.978Z,25.69
2023-05-06T12:12:50.000Z,25.68
2023-05-06T12:13:50.006Z,25.71
2023-05-06T12:14:50.004Z,25.69
2023-05-06T12:15:50.132Z,25.69
2023-05-06T12:16:50.065Z,25.61
2023-05-06T12:17:50.092Z,25.65
2023-05-06T12:18:50.074Z,25.60
2023-05-06T12:19:50.195Z,25.63
2023-05-06T12:20:50.268Z,25.63
2023-05-06T12:21:50.372Z,25.57
2023-05-06T12:22:50.428Z,25.59
2023-05-06T12:23:50.440Z,25.58
2023-05-06T12:24:50.551Z,25.58
2023-05-06T12:25:50.526Z,25.55
2023-05-06T12:26:50.610Z,25.55
2023-05-06T12:27:50.637Z,25.55
2023-05-06T12:28:50.717Z,25.51
2023-05-06T12:29:50.749Z,25.48
2023-05-06T12:30:50.833Z,25.48
2023-05-06T12:31:50.934Z,25.50
2023-05-06T12:32:50.972Z,25.51
2023-05-06T12:33:50.967Z,25.47
2023-05-06T12:34:51.030Z,25.49
2023-05-06T12:35:51.080Z,25.45
2023-05-06T12:36:51.118Z,25.42
2023-05-06T12:37:51.141Z,25.42
2023-05-06T12:38:51.201Z,25.43
2023-05-06T12:39:51.204Z,25.42
2023-05-06T12:40:51.233Z,25.47
2023-05-06T12:41:51.301Z,25.42
2023-05-06T12:42:51.335Z,25.37
2023-05-06T12:43:51.337Z,25.40
2023-05-06T12:44:51.398Z,25.41
2023-05-06T12:45:51.480Z,25.40
2023-05-06T12:46:51.458Z,25.31
2023-05-06T12:47:51.609Z,25.36
2023-05-06T12:48:51.508Z,25.36
2023-05-06T12:49:51.525Z,25.31
2023-05-06T12:50:51.590Z,25.32
2023-05-06T12:51:51.628Z,25.31
2023-05-06T12:52:51.638Z,25.29